createdAt,value
2022-12-18T00:04:28.953Z,21.00
2022-12-18T00:09:25.651Z,21.63
2022-12-18T00:14:28.137Z,19.90
2022-12-18T00:19:24.651Z,20.87
2022-12-18T00:24:21.125Z,17.15
2022-12-18T00:29:17.563Z,22.17
2022-12-18T00:34:14.407Z,21.33
2022-12-18T00:39:12.108Z,24.98
2022-12-18T00:44:10.665Z,17.88
2022-12-18T00:49:07.798Z,16.00
2022-12-18T00:59:00.705Z,17.58
2022-12-18T01:03:57.823Z,15.52
2022-12-18T01:13:50.604Z,19.73
2022-12-18T01:18:47.258Z,16.30
2022-12-18T01:23:43.742Z,19.63
2022-12-18T01:28:40.729Z,14.20
2022-12-18T01:33:39.051Z,14.73
2022-12-18T01:38:35.827Z,19.45
2022-12-18T01:43:45.308Z,19.07
2022-12-18T01:48:42.305Z,17.75
2022-12-18T01:53:40.725Z,15.32
2022-12-18T01:58:45.135Z,23.35
2022-12-18T02:03:43.638Z,21.50
2022-12-18T02:08:51.389Z,16.70
2022-12-18T02:14:22.815Z,17.90
2022-12-18T02:19:48.362Z,13.85
2022-12-18T02:25:06.099Z,15.75
2022-12-18T02:30:03.815Z,13.87
2022-12-18T02:35:00.710Z,16.25
2022-12-18T02:39:57.983Z,14.02
2022-12-18T02:44:55.750Z,16.15
2022-12-18T02:50:08.434Z,17.40
2022-12-18T02:55:23.157Z,15.30
2022-12-18T03:00:25.463Z,17.23
2022-12-18T03:05:44.211Z,14.10
2022-12-18T03:10:46.810Z,13.93
2022-12-18T03:15:46.987Z,13.57
2022-12-18T03:20:44.662Z,15.85
2022-12-18T03:25:42.969Z,17.80
2022-12-18T03:30:42.394Z,17.77
2022-12-18T03:35:41.431Z,15.13
2022-12-18T03:41:02.247Z,14.38
2022-12-18T03:46:41.275Z,16.42
2022-12-18T03:51:39.590Z,16.13
2022-12-18T03:56:43.154Z,13.18
2022-12-18T04:01:43.571Z,14.07
2022-12-18T04:06:41.944Z,12.32
2022-12-18T04:11:38.398Z,14.10
2022-12-18T04:16:35.888Z,14.50
2022-12-18T04:21:32.349Z,14.38
2022-12-18T04:26:28.713Z,16.43
2022-12-18T04:31:25.164Z,15.50
2022-12-18T04:36:22.160Z,12.85
2022-12-18T04:41:18.846Z,13.48
2022-12-18T04:46:15.762Z,12.98
2022-12-18T04:51:12.245Z,14.15
2022-12-18T04:56:13.729Z,13.77
2022-12-18T05:01:11.858Z,12.40
2022-12-18T05:06:08.768Z,10.38
2022-12-18T05:11:08.164Z,14.30
2022-12-18T05:16:05.790Z,16.50
2022-12-18T05:21:02.766Z,14.95
2022-12-18T05:26:01.977Z,14.63
2022-12-18T05:31:00.116Z,14.38
2022-12-18T05:35:58.655Z,13.85
2022-12-18T05:40:55.115Z,11.50
2022-12-18T05:45:52.301Z,14.50
2022-12-18T05:55:45.658Z,12.25
2022-12-18T06:00:44.500Z,14.88
2022-12-18T06:05:43.106Z,15.13
2022-12-18T06:10:41.978Z,13.50
2022-12-18T06:15:39.169Z,13.13
2022-12-18T06:25:33.968Z,16.10
2022-12-18T06:30:30.428Z,14.77
2022-12-18T06:35:26.895Z,15.82
2022-12-18T06:40:23.307Z,14.77
2022-12-18T06:45:20.770Z,16.05
2022-12-18T06:50:17.520Z,17.70
2022-12-18T06:55:13.996Z,15.07
2022-12-18T07:00:10.821Z,17.30
2022-12-18T07:05:10.939Z,18.45
2022-12-18T07:10:07.846Z,16.17
2022-12-18T07:15:04.819Z,17.27
2022-12-18T07:20:02.557Z,14.52
2022-12-18T07:24:59.918Z,17.27
2022-12-18T07:29:56.361Z,16.55
2022-12-18T07:34:52.903Z,17.35
2022-12-18T07:39:49.385Z,16.55
2022-12-18T07:44:48.354Z,16.55
2022-12-18T07:49:45.075Z,16.52
2022-12-18T07:54:41.588Z,18.30
2022-12-18T07:59:38.099Z,13.00
2022-12-18T08:04:37.570Z,16.00
2022-12-18T08:09:34.081Z,20.48
2022-12-18T08:14:30.508Z,15.88
2022-12-18T08:19:27.018Z,16.98
2022-12-18T08:24:23.747Z,16.80
2022-12-18T08:29:21.791Z,19.67
2022-12-18T08:34:18.364Z,17.20
2022-12-18T08:39:14.890Z,17.27
2022-12-18T08:44:29.969Z,20.38
2022-12-18T08:49:29.129Z,19.23
2022-12-18T08:54:26.093Z,19.23
2022-12-18T08:59:24.035Z,17.95
2022-12-18T09:04:20.498Z,18.63
2022-12-18T09:09:16.946Z,18.10
2022-12-18T09:14:13.434Z,16.10
2022-12-18T09:19:10.771Z,19.95
2022-12-18T09:24:10.757Z,17.60
2022-12-18T09:29:08.325Z,15.10
2022-12-18T09:34:09.989Z,15.68
2022-12-18T09:39:08.858Z,36.85
2022-12-18T09:44:56.859Z,19.00
2022-12-18T09:50:04.576Z,17.95
2022-12-18T09:55:20.446Z,16.38
2022-12-18T10:00:20.552Z,17.52
2022-12-18T10:05:20.337Z,17.75
2022-12-18T10:10:41.356Z,18.20
2022-12-18T10:15:51.940Z,17.70
2022-12-18T10:26:33.022Z,16.00
2022-12-18T10:31:29.565Z,16.27
2022-12-18T10:43:16.153Z,20.08
2022-12-18T10:48:21.233Z,15.50
2022-12-18T10:53:40.897Z,21.38
2022-12-18T10:58:39.680Z,16.23
2022-12-18T11:03:43.153Z,18.92
2022-12-18T11:08:40.667Z,14.60
2022-12-18T11:13:37.439Z,15.02
2022-12-18T11:18:35.879Z,19.08
2022-12-18T11:23:32.501Z,17.90
2022-12-18T11:29:13.736Z,17.40
2022-12-18T11:34:29.500Z,21.65
2022-12-18T11:39:57.417Z,16.33
2022-12-18T11:45:07.504Z,17.02
2022-12-18T11:51:16.911Z,19.40
2022-12-18T11:56:36.116Z,17.48
2022-12-18T12:01:47.451Z,18.48
2022-12-18T12:07:01.549Z,20.60
2022-12-18T12:12:14.318Z,18.70
2022-12-18T12:17:19.053Z,18.90
2022-12-18T12:22:38.109Z,17.42
2022-12-18T12:27:41.203Z,18.05
2022-12-18T12:32:50.637Z,20.08
2022-12-18T12:38:06.648Z,19.27
2022-12-18T12:43:14.563Z,18.40
2022-12-18T12:53:31.686Z,17.98
2022-12-18T12:58:38.227Z,17.77
2022-12-18T13:03:41.193Z,19.35
2022-12-18T13:08:58.278Z,21.00
2022-12-18T13:13:56.924Z,17.15
2022-12-18T13:18:57.741Z,22.17
2022-12-18T13:23:54.779Z,21.63
2022-12-18T13:28:54.097Z,20.33
2022-12-18T13:34:24.597Z,19.33
2022-12-18T13:39:35.336Z,23.35
2022-12-18T13:44:40.895Z,18.90
2022-12-18T13:49:40.507Z,22.58
2022-12-18T13:54:40.373Z,19.95
2022-12-18T13:59:38.830Z,19.58
2022-12-18T14:04:36.474Z,22.88
2022-12-18T14:09:38.891Z,20.10
2022-12-18T14:14:37.577Z,24.77
2022-12-18T14:24:31.371Z,20.70
2022-12-18T14:29:29.765Z,24.57
2022-12-18T14:34:27.508Z,21.75
2022-12-18T14:39:26.246Z,24.23
2022-12-18T14:44:23.800Z,24.55
2022-12-18T14:49:33.225Z,24.27
2022-12-18T14:54:30.847Z,26.60
2022-12-18T14:59:27.803Z,30.02
2022-12-18T15:04:36.156Z,27.98
2022-12-18T15:09:32.701Z,28.15
2022-12-18T15:14:35.790Z,27.80
2022-12-18T15:19:42.921Z,26.50
2022-12-18T15:24:39.287Z,27.27
2022-12-18T15:29:36.062Z,26.38
2022-12-18T15:34:33.115Z,29.23
2022-12-18T15:39:29.536Z,25.45
2022-12-18T15:44:26.422Z,27.47
2022-12-18T15:49:22.899Z,27.98
2022-12-18T15:54:39.380Z,26.00
2022-12-18T15:59:35.943Z,26.95
2022-12-18T16:04:32.359Z,23.25
2022-12-18T16:09:28.738Z,24.20
2022-12-18T16:14:27.598Z,29.30
2022-12-18T16:19:24.593Z,24.27
2022-12-18T16:24:25.959Z,29.80
2022-12-18T16:29:28.625Z,25.52
2022-12-18T16:34:29.053Z,25.45
2022-12-18T16:39:26.408Z,26.95
2022-12-18T16:44:23.248Z,28.15
2022-12-18T16:49:20.097Z,26.65
2022-12-18T16:54:19.079Z,27.48
2022-12-18T16:59:16.210Z,25.23
2022-12-18T17:04:12.714Z,23.17
2022-12-18T17:09:15.349Z,27.92
2022-12-18T17:14:18.136Z,23.95
2022-12-18T17:19:17.427Z,22.77
2022-12-18T17:24:14.060Z,24.13
2022-12-18T17:29:13.740Z,23.43
2022-12-18T17:34:11.068Z,23.77
2022-12-18T17:39:07.962Z,22.42
2022-12-18T17:44:05.850Z,22.15
2022-12-18T17:49:03.440Z,22.70
2022-12-18T17:53:59.942Z,19.20
2022-12-18T17:58:56.426Z,20.85
2022-12-18T18:03:56.011Z,20.67
2022-12-18T18:08:53.777Z,20.25
2022-12-18T18:14:02.629Z,16.08
2022-12-18T18:19:00.833Z,18.08
2022-12-18T18:24:00.936Z,18.75
2022-12-18T18:28:58.821Z,18.23
2022-12-18T18:33:55.539Z,16.65
2022-12-18T18:38:52.375Z,21.75
2022-12-18T18:43:48.862Z,16.90
2022-12-18T18:48:45.678Z,17.23
2022-12-18T18:53:43.808Z,20.15
2022-12-18T18:58:40.928Z,19.42
2022-12-18T19:03:38.174Z,15.18
2022-12-18T19:08:39.168Z,19.77
2022-12-18T19:13:35.857Z,15.63
2022-12-18T19:18:33.249Z,17.15
2022-12-18T19:23:31.179Z,17.38
2022-12-18T19:28:29.166Z,14.05
2022-12-18T19:33:42.396Z,17.40
2022-12-18T19:38:42.717Z,15.68
2022-12-18T19:43:41.783Z,11.68
2022-12-18T19:48:38.597Z,16.80
2022-12-18T19:53:35.806Z,17.48
2022-12-18T19:58:32.327Z,16.73
2022-12-18T20:03:32.500Z,17.57
2022-12-18T20:08:29.556Z,17.83
2022-12-18T20:13:26.048Z,20.13
2022-12-18T20:18:24.009Z,16.73
2022-12-18T20:23:22.398Z,20.43
2022-12-18T20:28:18.899Z,17.67
2022-12-18T20:33:15.869Z,17.08
2022-12-18T20:38:12.367Z,19.40
2022-12-18T20:43:13.841Z,18.90
2022-12-18T20:48:13.511Z,19.13
2022-12-18T20:53:10.155Z,20.83
2022-12-18T20:58:06.662Z,22.55
2022-12-18T21:03:03.213Z,21.48
2022-12-18T21:07:59.776Z,19.65
2022-12-18T21:12:58.834Z,17.97
2022-12-18T21:17:58.009Z,17.42
2022-12-18T21:22:57.308Z,20.17
2022-12-18T21:27:59.772Z,19.10
2022-12-18T21:32:56.204Z,20.10
2022-12-18T21:37:52.641Z,19.70
2022-12-18T21:43:07.403Z,20.13
2022-12-18T21:48:04.118Z,21.20
2022-12-18T21:53:00.552Z,28.80
2022-12-18T21:57:57.372Z,21.07
2022-12-18T22:03:17.417Z,20.25
2022-12-18T22:08:10.300Z,26.30
2022-12-18T22:13:08.714Z,24.77
2022-12-18T22:18:05.136Z,26.20
2022-12-18T22:23:04.211Z,22.23
2022-12-18T22:28:21.644Z,23.75
2022-12-18T22:33:18.132Z,23.40
2022-12-18T22:38:14.582Z,23.97
2022-12-18T22:43:10.958Z,24.27
2022-12-18T22:48:07.385Z,22.60
2022-12-18T22:53:03.788Z,21.80
2022-12-18T22:58:00.179Z,25.33
2022-12-18T23:03:00.667Z,25.20
2022-12-18T23:07:58.318Z,22.50
2022-12-18T23:12:55.648Z,23.98
2022-12-18T23:17:52.271Z,24.08
2022-12-18T23:22:48.713Z,21.98
2022-12-18T23:27:45.195Z,22.40
2022-12-18T23:32:41.728Z,22.37
2022-12-18T23:37:59.465Z,22.50
2022-12-18T23:42:54.704Z,21.25
2022-12-18T23:47:51.466Z,25.75
2022-12-18T23:52:47.924Z,26.23
2022-12-18T23:57:44.434Z,16.73
